sensor_id;sensor_type;location;lat;lon;timestamp;P1;durP1;ratioP1;P2;durP2;ratioP2
22201;SDS011;11266;51.522;6.302;2023-07-29T00:00:10;3.40;;;1.20;;
22201;SDS011;11266;51.522;6.302;2023-07-29T00:00:56;6.28;;;1.35;;
22201;SDS011;11266;51.522;6.302;2023-07-29T00:01:42;2.55;;;0.90;;
22201;SDS011;11266;51.522;6.302;2023-07-29T00:02:27;4.85;;;1.17;;
22201;SDS011;11266;51.522;6.302;2023-07-29T00:03:15;9.52;;;1.95;;
22201;SDS011;11266;51.522;6.302;2023-07-29T00:04:01;2.50;;;1.10;;
22201;SDS011;11266;51.522;6.302;2023-07-29T00:04:47;2.28;;;1.08;;
22201;SDS011;11266;51.522;6.302;2023-07-29T00:05:33;5.22;;;1.50;;
22201;SDS011;11266;51.522;6.302;2023-07-29T00:06:18;5.57;;;1.25;;
22201;SDS011;11266;51.522;6.302;2023-07-29T00:07:04;2.70;;;1.45;;
22201;SDS011;11266;51.522;6.302;2023-07-29T00:07:49;3.88;;;1.30;;
22201;SDS011;11266;51.522;6.302;2023-07-29T00:08:35;2.85;;;1.45;;
22201;SDS011;11266;51.522;6.302;2023-07-29T00:09:20;2.55;;;1.15;;
22201;SDS011;11266;51.522;6.302;2023-07-29T00:10:06;5.18;;;1.20;;
22201;SDS011;11266;51.522;6.302;2023-07-29T00:10:52;5.70;;;1.40;;
22201;SDS011;11266;51.522;6.302;2023-07-29T00:11:38;3.47;;;1.27;;
22201;SDS011;11266;51.522;6.302;2023-07-29T00:12:23;3.88;;;1.23;;
22201;SDS011;11266;51.522;6.302;2023-07-29T00:13:09;1.48;;;1.00;;
22201;SDS011;11266;51.522;6.302;2023-07-29T00:13:54;2.47;;;1.20;;
22201;SDS011;11266;51.522;6.302;2023-07-29T00:14:40;6.38;;;1.13;;
22201;SDS011;11266;51.522;6.302;2023-07-29T00:15:25;1.52;;;1.10;;
22201;SDS011;11266;51.522;6.302;2023-07-29T00:16:11;2.42;;;1.30;;
22201;SDS011;11266;51.522;6.302;2023-07-29T00:16:57;4.78;;;1.00;;
22201;SDS011;11266;51.522;6.302;2023-07-29T00:17:42;1.63;;;1.20;;
22201;SDS011;11266;51.522;6.302;2023-07-29T00:18:28;2.08;;;1.13;;
22201;SDS011;11266;51.522;6.302;2023-07-29T00:19:13;1.60;;;0.95;;
22201;SDS011;11266;51.522;6.302;2023-07-29T00:19:59;2.03;;;1.05;;
22201;SDS011;11266;51.522;6.302;2023-07-29T00:20:44;5.68;;;1.23;;
22201;SDS011;11266;51.522;6.302;2023-07-29T00:21:30;3.55;;;1.30;;
22201;SDS011;11266;51.522;6.302;2023-07-29T00:22:16;2.47;;;1.35;;
22201;SDS011;11266;51.522;6.302;2023-07-29T00:23:01;3.17;;;1.23;;
22201;SDS011;11266;51.522;6.302;2023-07-29T00:23:47;3.35;;;1.60;;
22201;SDS011;11266;51.522;6.302;2023-07-29T00:24:33;5.00;;;1.38;;
22201;SDS011;11266;51.522;6.302;2023-07-29T00:25:18;2.63;;;1.10;;
22201;SDS011;11266;51.522;6.302;2023-07-29T00:26:04;3.22;;;1.20;;
22201;SDS011;11266;51.522;6.302;2023-07-29T00:26:50;2.05;;;1.10;;
22201;SDS011;11266;51.522;6.302;2023-07-29T00:27:35;2.55;;;1.15;;
22201;SDS011;11266;51.522;6.302;2023-07-29T00:28:21;2.13;;;1.10;;
22201;SDS011;11266;51.522;6.302;2023-07-29T00:29:06;1.08;;;0.82;;
22201;SDS011;11266;51.522;6.302;2023-07-29T00:29:52;2.15;;;1.10;;
22201;SDS011;11266;51.522;6.302;2023-07-29T00:30:37;2.03;;;1.20;;
22201;SDS011;11266;51.522;6.302;2023-07-29T00:31:23;2.05;;;1.05;;
22201;SDS011;11266;51.522;6.302;2023-07-29T00:32:09;1.50;;;1.20;;
22201;SDS011;11266;51.522;6.302;2023-07-29T00:32:54;2.40;;;1.33;;
22201;SDS011;11266;51.522;6.302;2023-07-29T00:33:40;2.17;;;1.10;;
22201;SDS011;11266;51.522;6.302;2023-07-29T00:34:25;4.90;;;1.40;;
22201;SDS011;11266;51.522;6.302;2023-07-29T00:35:11;2.60;;;1.48;;
22201;SDS011;11266;51.522;6.302;2023-07-29T00:35:56;2.28;;;1.20;;
22201;SDS011;11266;51.522;6.302;2023-07-29T00:36:42;4.22;;;1.40;;
22201;SDS011;11266;51.522;6.302;2023-07-29T00:37:27;3.45;;;1.30;;
22201;SDS011;11266;51.522;6.302;2023-07-29T00:38:15;2.45;;;1.17;;
22201;SDS011;11266;51.522;6.302;2023-07-29T00:39:00;4.07;;;1.25;;
22201;SDS011;11266;51.522;6.302;2023-07-29T00:39:46;1.60;;;1.10;;
22201;SDS011;11266;51.522;6.302;2023-07-29T00:40:31;2.83;;;0.95;;
22201;SDS011;11266;51.522;6.302;2023-07-29T00:41:20;2.33;;;1.17;;
22201;SDS011;11266;51.522;6.302;2023-07-29T00:42:08;1.40;;;1.10;;
22201;SDS011;11266;51.522;6.302;2023-07-29T00:42:54;1.83;;;1.10;;
22201;SDS011;11266;51.522;6.302;2023-07-29T00:43:39;2.45;;;1.27;;
22201;SDS011;11266;51.522;6.302;2023-07-29T00:44:25;2.25;;;1.10;;
22201;SDS011;11266;51.522;6.302;2023-07-29T00:45:12;2.53;;;1.20;;
22201;SDS011;11266;51.522;6.302;2023-07-29T00:45:57;1.63;;;1.10;;
22201;SDS011;11266;51.522;6.302;2023-07-29T00:46:45;1.70;;;1.17;;
22201;SDS011;11266;51.522;6.302;2023-07-29T00:47:32;5.97;;;1.50;;
22201;SDS011;11266;51.522;6.302;2023-07-29T00:48:18;2.33;;;1.55;;
22201;SDS011;11266;51.522;6.302;2023-07-29T00:49:04;2.17;;;1.30;;
22201;SDS011;11266;51.522;6.302;2023-07-29T00:49:50;3.55;;;1.02;;
22201;SDS011;11266;51.522;6.302;2023-07-29T00:50:36;1.92;;;1.23;;
22201;SDS011;11266;51.522;6.302;2023-07-29T00:51:22;1.73;;;1.00;;
22201;SDS011;11266;51.522;6.302;2023-07-29T00:52:07;1.65;;;1.20;;
22201;SDS011;11266;51.522;6.302;2023-07-29T00:52:56;2.38;;;1.10;;
22201;SDS011;11266;51.522;6.302;2023-07-29T00:53:42;2.33;;;1.40;;
22201;SDS011;11266;51.522;6.302;2023-07-29T00:54:27;2.70;;;1.20;;
22201;SDS011;11266;51.522;6.302;2023-07-29T00:55:13;7.05;;;1.40;;
22201;SDS011;11266;51.522;6.302;2023-07-29T00:55:59;3.58;;;1.20;;
22201;SDS011;11266;51.522;6.302;2023-07-29T00:56:45;2.97;;;1.08;;
22201;SDS011;11266;51.522;6.302;2023-07-29T00:57:31;1.73;;;0.93;;
22201;SDS011;11266;51.522;6.302;2023-07-29T00:58:17;2.78;;;1.27;;
22201;SDS011;11266;51.522;6.302;2023-07-29T00:59:04;3.67;;;1.10;;
22201;SDS011;11266;51.522;6.302;2023-07-29T00:59:49;3.22;;;1.27;;
22201;SDS011;11266;51.522;6.302;2023-07-29T01:00:35;1.45;;;1.10;;
22201;SDS011;11266;51.522;6.302;2023-07-29T01:01:21;1.65;;;1.15;;
22201;SDS011;11266;51.522;6.302;2023-07-29T01:02:07;5.85;;;1.42;;
22201;SDS011;11266;51.522;6.302;2023-07-29T01:02:53;1.50;;;1.10;;
22201;SDS011;11266;51.522;6.302;2023-07-29T01:03:39;1.58;;;1.05;;
22201;SDS011;11266;51.522;6.302;2023-07-29T01:04:25;2.45;;;1.27;;
22201;SDS011;11266;51.522;6.302;2023-07-29T01:05:11;1.92;;;1.10;;
22201;SDS011;11266;51.522;6.302;2023-07-29T01:07:07;1.73;;;1.00;;
22201;SDS011;11266;51.522;6.302;2023-07-29T01:08:11;2.30;;;1.08;;
22201;SDS011;11266;51.522;6.302;2023-07-29T01:09:14;3.72;;;1.13;;
22201;SDS011;11266;51.522;6.302;2023-07-29T01:10:21;3.50;;;1.33;;
22201;SDS011;11266;51.522;6.302;2023-07-29T01:11:31;4.00;;;1.08;;
22201;SDS011;11266;51.522;6.302;2023-07-29T01:12:42;2.58;;;1.20;;
22201;SDS011;11266;51.522;6.302;2023-07-29T01:15:44;1.73;;;1.05;;
22201;SDS011;11266;51.522;6.302;2023-07-29T01:16:52;3.85;;;1.58;;
22201;SDS011;11266;51.522;6.302;2023-07-29T01:17:43;2.80;;;1.30;;
22201;SDS011;11266;51.522;6.302;2023-07-29T01:18:32;7.30;;;1.63;;
22201;SDS011;11266;51.522;6.302;2023-07-29T01:20:26;3.80;;;1.30;;
22201;SDS011;11266;51.522;6.302;2023-07-29T01:21:12;4.45;;;1.50;;
22201;SDS011;11266;51.522;6.302;2023-07-29T01:21:59;7.00;;;1.60;;
22201;SDS011;11266;51.522;6.302;2023-07-29T01:22:45;11.35;;;1.55;;
22201;SDS011;11266;51.522;6.302;2023-07-29T01:23:33;2.67;;;1.10;;
22201;SDS011;11266;51.522;6.302;2023-07-29T01:24:19;4.93;;;1.17;;
22201;SDS011;11266;51.522;6.302;2023-07-29T01:25:05;3.60;;;1.75;;
22201;SDS011;11266;51.522;6.302;2023-07-29T01:25:51;3.65;;;1.20;;
22201;SDS011;11266;51.522;6.302;2023-07-29T01:26:36;2.88;;;1.45;;
22201;SDS011;11266;51.522;6.302;2023-07-29T01:27:22;2.08;;;1.00;;
22201;SDS011;11266;51.522;6.302;2023-07-29T01:28:07;3.38;;;1.10;;
22201;SDS011;11266;51.522;6.302;2023-07-29T01:28:53;1.25;;;1.00;;
22201;SDS011;11266;51.522;6.302;2023-07-29T01:29:39;1.60;;;1.08;;
22201;SDS011;11266;51.522;6.302;2023-07-29T01:30:33;2.97;;;0.95;;
22201;SDS011;11266;51.522;6.302;2023-07-29T01:31:27;5.25;;;1.55;;
22201;SDS011;11266;51.522;6.302;2023-07-29T01:32:41;4.05;;;1.30;;
22201;SDS011;11266;51.522;6.302;2023-07-29T01:33:25;3.53;;;1.30;;
22201;SDS011;11266;51.522;6.302;2023-07-29T01:34:26;4.65;;;1.40;;
22201;SDS011;11266;51.522;6.302;2023-07-29T01:36:13;7.50;;;1.65;;
22201;SDS011;11266;51.522;6.302;2023-07-29T01:37:03;3.90;;;1.30;;
22201;SDS011;11266;51.522;6.302;2023-07-29T01:38:05;3.55;;;1.35;;
22201;SDS011;11266;51.522;6.302;2023-07-29T01:38:54;2.40;;;1.30;;
22201;SDS011;11266;51.522;6.302;2023-07-29T01:39:41;3.20;;;1.13;;
22201;SDS011;11266;51.522;6.302;2023-07-29T01:40:28;3.20;;;1.40;;
22201;SDS011;11266;51.522;6.302;2023-07-29T01:41:14;4.82;;;1.20;;
22201;SDS011;11266;51.522;6.302;2023-07-29T01:42:01;3.60;;;1.50;;
22201;SDS011;11266;51.522;6.302;2023-07-29T01:42:47;3.53;;;1.50;;
22201;SDS011;11266;51.522;6.302;2023-07-29T01:43:32;7.18;;;1.52;;
22201;SDS011;11266;51.522;6.302;2023-07-29T01:44:19;3.28;;;1.40;;
22201;SDS011;11266;51.522;6.302;2023-07-29T01:45:04;7.90;;;1.60;;
22201;SDS011;11266;51.522;6.302;2023-07-29T01:45:50;3.80;;;1.50;;
22201;SDS011;11266;51.522;6.302;2023-07-29T01:46:36;4.18;;;1.40;;
22201;SDS011;11266;51.522;6.302;2023-07-29T01:47:22;4.75;;;1.27;;
22201;SDS011;11266;51.522;6.302;2023-07-29T01:48:08;6.35;;;1.38;;
22201;SDS011;11266;51.522;6.302;2023-07-29T01:48:53;11.93;;;2.10;;
22201;SDS011;11266;51.522;6.302;2023-07-29T01:49:39;4.72;;;1.70;;
22201;SDS011;11266;51.522;6.302;2023-07-29T01:50:24;8.43;;;1.90;;
22201;SDS011;11266;51.522;6.302;2023-07-29T01:51:11;14.30;;;1.40;;
22201;SDS011;11266;51.522;6.302;2023-07-29T01:51:57;2.55;;;1.17;;
22201;SDS011;11266;51.522;6.302;2023-07-29T01:52:43;9.43;;;1.70;;
22201;SDS011;11266;51.522;6.302;2023-07-29T01:53:28;3.20;;;1.20;;
22201;SDS011;11266;51.522;6.302;2023-07-29T01:54:14;5.32;;;1.60;;
22201;SDS011;11266;51.522;6.302;2023-07-29T01:54:59;4.95;;;1.63;;
22201;SDS011;11266;51.522;6.302;2023-07-29T01:55:45;7.53;;;1.50;;
22201;SDS011;11266;51.522;6.302;2023-07-29T01:56:30;6.82;;;1.63;;
22201;SDS011;11266;51.522;6.302;2023-07-29T01:57:16;7.28;;;1.55;;
22201;SDS011;11266;51.522;6.302;2023-07-29T01:58:01;7.82;;;1.60;;
22201;SDS011;11266;51.522;6.302;2023-07-29T01:58:47;8.73;;;2.08;;
22201;SDS011;11266;51.522;6.302;2023-07-29T01:59:32;10.65;;;2.15;;
22201;SDS011;11266;51.522;6.302;2023-07-29T02:00:18;6.28;;;1.90;;
22201;SDS011;11266;51.522;6.302;2023-07-29T02:01:04;6.00;;;1.40;;
22201;SDS011;11266;51.522;6.302;2023-07-29T02:01:49;8.45;;;2.22;;
22201;SDS011;11266;51.522;6.302;2023-07-29T02:02:35;7.72;;;2.20;;
22201;SDS011;11266;51.522;6.302;2023-07-29T02:03:20;5.22;;;1.30;;
22201;SDS011;11266;51.522;6.302;2023-07-29T02:04:06;4.93;;;1.33;;
22201;SDS011;11266;51.522;6.302;2023-07-29T02:04:52;5.22;;;1.75;;
22201;SDS011;11266;51.522;6.302;2023-07-29T02:05:37;8.65;;;1.40;;
22201;SDS011;11266;51.522;6.302;2023-07-29T02:06:23;5.25;;;1.40;;
22201;SDS011;11266;51.522;6.302;2023-07-29T02:07:09;7.13;;;1.45;;
22201;SDS011;11266;51.522;6.302;2023-07-29T02:07:54;7.88;;;1.95;;
22201;SDS011;11266;51.522;6.302;2023-07-29T02:08:40;4.78;;;1.67;;
22201;SDS011;11266;51.522;6.302;2023-07-29T02:09:25;6.82;;;1.75;;
22201;SDS011;11266;51.522;6.302;2023-07-29T02:10:12;3.83;;;1.55;;
22201;SDS011;11266;51.522;6.302;2023-07-29T02:10:58;3.30;;;1.30;;
22201;SDS011;11266;51.522;6.302;2023-07-29T02:11:43;3.67;;;1.25;;
22201;SDS011;11266;51.522;6.302;2023-07-29T02:12:29;2.53;;;1.23;;
22201;SDS011;11266;51.522;6.302;2023-07-29T02:13:14;6.45;;;1.80;;
22201;SDS011;11266;51.522;6.302;2023-07-29T02:14:00;9.23;;;1.83;;
22201;SDS011;11266;51.522;6.302;2023-07-29T02:14:45;10.07;;;1.83;;
22201;SDS011;11266;51.522;6.302;2023-07-29T02:15:31;13.27;;;1.95;;
22201;SDS011;11266;51.522;6.302;2023-07-29T02:16:16;10.70;;;2.10;;
22201;SDS011;11266;51.522;6.302;2023-07-29T02:17:03;7.80;;;1.30;;
22201;SDS011;11266;51.522;6.302;2023-07-29T02:17:49;5.25;;;1.45;;
22201;SDS011;11266;51.522;6.302;2023-07-29T02:18:36;4.97;;;1.65;;
22201;SDS011;11266;51.522;6.302;2023-07-29T02:19:22;3.88;;;1.67;;
22201;SDS011;11266;51.522;6.302;2023-07-29T02:20:08;4.88;;;1.63;;
22201;SDS011;11266;51.522;6.302;2023-07-29T02:20:55;6.38;;;1.70;;
22201;SDS011;11266;51.522;6.302;2023-07-29T02:21:41;8.07;;;1.77;;
22201;SDS011;11266;51.522;6.302;2023-07-29T02:22:26;7.30;;;1.70;;
22201;SDS011;11266;51.522;6.302;2023-07-29T02:23:12;4.05;;;1.48;;
22201;SDS011;11266;51.522;6.302;2023-07-29T02:23:57;16.35;;;1.88;;
22201;SDS011;11266;51.522;6.302;2023-07-29T02:24:43;5.40;;;1.55;;
22201;SDS011;11266;51.522;6.302;2023-07-29T02:25:29;7.47;;;2.00;;
22201;SDS011;11266;51.522;6.302;2023-07-29T02:26:16;6.47;;;1.58;;
22201;SDS011;11266;51.522;6.302;2023-07-29T02:27:01;6.55;;;1.92;;
22201;SDS011;11266;51.522;6.302;2023-07-29T02:27:47;10.57;;;1.95;;
22201;SDS011;11266;51.522;6.302;2023-07-29T02:28:33;9.15;;;2.92;;
22201;SDS011;11266;51.522;6.302;2023-07-29T02:29:18;11.27;;;1.65;;
22201;SDS011;11266;51.522;6.302;2023-07-29T02:30:04;6.82;;;1.63;;
22201;SDS011;11266;51.522;6.302;2023-07-29T02:31:08;3.90;;;1.70;;
22201;SDS011;11266;51.522;6.302;2023-07-29T02:31:57;8.98;;;2.22;;
22201;SDS011;11266;51.522;6.302;2023-07-29T02:32:43;5.82;;;1.48;;
22201;SDS011;11266;51.522;6.302;2023-07-29T02:33:28;4.47;;;1.63;;
22201;SDS011;11266;51.522;6.302;2023-07-29T02:34:14;9.32;;;1.58;;
22201;SDS011;11266;51.522;6.302;2023-07-29T02:34:59;19.92;;;1.85;;
22201;SDS011;11266;51.522;6.302;2023-07-29T02:35:45;14.77;;;2.38;;
22201;SDS011;11266;51.522;6.302;2023-07-29T02:36:30;9.00;;;1.85;;
22201;SDS011;11266;51.522;6.302;2023-07-29T02:37:16;7.78;;;1.77;;
22201;SDS011;11266;51.522;6.302;2023-07-29T02:38:02;14.70;;;2.83;;
22201;SDS011;11266;51.522;6.302;2023-07-29T02:38:47;11.55;;;2.33;;
22201;SDS011;11266;51.522;6.302;2023-07-29T02:39:33;15.25;;;2.42;;
22201;SDS011;11266;51.522;6.302;2023-07-29T02:40:18;7.82;;;1.80;;
22201;SDS011;11266;51.522;6.302;2023-07-29T02:41:05;4.28;;;1.40;;
22201;SDS011;11266;51.522;6.302;2023-07-29T02:41:51;11.05;;;2.95;;
22201;SDS011;11266;51.522;6.302;2023-07-29T02:42:37;9.48;;;2.10;;
22201;SDS011;11266;51.522;6.302;2023-07-29T02:43:23;17.38;;;2.22;;
22201;SDS011;11266;51.522;6.302;2023-07-29T02:44:09;13.77;;;1.98;;
22201;SDS011;11266;51.522;6.302;2023-07-29T02:44:54;8.02;;;1.58;;
22201;SDS011;11266;51.522;6.302;2023-07-29T02:45:40;4.35;;;1.80;;
22201;SDS011;11266;51.522;6.302;2023-07-29T02:46:26;14.25;;;3.53;;
22201;SDS011;11266;51.522;6.302;2023-07-29T02:47:11;11.55;;;2.20;;
22201;SDS011;11266;51.522;6.302;2023-07-29T02:47:57;9.88;;;2.15;;
22201;SDS011;11266;51.522;6.302;2023-07-29T02:48:43;11.43;;;1.90;;
22201;SDS011;11266;51.522;6.302;2023-07-29T02:49:29;4.53;;;1.98;;
22201;SDS011;11266;51.522;6.302;2023-07-29T02:50:15;10.15;;;2.03;;
22201;SDS011;11266;51.522;6.302;2023-07-29T02:51:00;7.53;;;1.92;;
22201;SDS011;11266;51.522;6.302;2023-07-29T02:51:46;9.45;;;1.80;;
22201;SDS011;11266;51.522;6.302;2023-07-29T02:52:31;5.70;;;1.70;;
22201;SDS011;11266;51.522;6.302;2023-07-29T02:53:17;7.70;;;1.70;;
22201;SDS011;11266;51.522;6.302;2023-07-29T02:54:02;13.40;;;1.80;;
22201;SDS011;11266;51.522;6.302;2023-07-29T02:54:48;12.60;;;2.13;;
22201;SDS011;11266;51.522;6.302;2023-07-29T02:55:33;8.57;;;2.42;;
22201;SDS011;11266;51.522;6.302;2023-07-29T02:56:19;13.23;;;1.95;;
22201;SDS011;11266;51.522;6.302;2023-07-29T02:57:05;9.20;;;1.95;;
22201;SDS011;11266;51.522;6.302;2023-07-29T02:57:50;11.95;;;2.60;;
22201;SDS011;11266;51.522;6.302;2023-07-29T02:58:36;8.27;;;1.90;;
22201;SDS011;11266;51.522;6.302;2023-07-29T02:59:22;8.63;;;2.22;;
22201;SDS011;11266;51.522;6.302;2023-07-29T03:00:08;9.10;;;1.63;;
22201;SDS011;11266;51.522;6.302;2023-07-29T03:01:00;9.98;;;1.85;;
22201;SDS011;11266;51.522;6.302;2023-07-29T03:01:47;9.07;;;2.25;;
22201;SDS011;11266;51.522;6.302;2023-07-29T03:02:33;10.77;;;2.20;;
22201;SDS011;11266;51.522;6.302;2023-07-29T03:03:18;6.10;;;1.73;;
22201;SDS011;11266;51.522;6.302;2023-07-29T03:04:04;25.73;;;2.55;;
22201;SDS011;11266;51.522;6.302;2023-07-29T03:04:50;14.82;;;2.05;;
22201;SDS011;11266;51.522;6.302;2023-07-29T03:05:35;19.55;;;2.75;;
22201;SDS011;11266;51.522;6.302;2023-07-29T03:06:23;8.10;;;2.10;;
22201;SDS011;11266;51.522;6.302;2023-07-29T03:07:09;10.02;;;2.75;;
22201;SDS011;11266;51.522;6.302;2023-07-29T03:07:54;18.30;;;1.88;;
22201;SDS011;11266;51.522;6.302;2023-07-29T03:08:40;11.10;;;1.80;;
22201;SDS011;11266;51.522;6.302;2023-07-29T03:09:26;7.70;;;1.70;;
22201;SDS011;11266;51.522;6.302;2023-07-29T03:10:11;10.45;;;1.92;;
22201;SDS011;11266;51.522;6.302;2023-07-29T03:10:57;16.40;;;2.88;;
22201;SDS011;11266;51.522;6.302;2023-07-29T03:11:43;11.07;;;2.03;;
22201;SDS011;11266;51.522;6.302;2023-07-29T03:12:29;14.77;;;2.15;;
22201;SDS011;11266;51.522;6.302;2023-07-29T03:13:16;15.38;;;2.50;;
22201;SDS011;11266;51.522;6.302;2023-07-29T03:14:01;13.02;;;2.15;;
22201;SDS011;11266;51.522;6.302;2023-07-29T03:14:47;15.25;;;2.25;;
22201;SDS011;11266;51.522;6.302;2023-07-29T03:15:33;12.98;;;2.13;;
22201;SDS011;11266;51.522;6.302;2023-07-29T03:16:20;18.15;;;2.22;;
22201;SDS011;11266;51.522;6.302;2023-07-29T03:17:05;12.27;;;2.58;;
22201;SDS011;11266;51.522;6.302;2023-07-29T03:17:53;12.52;;;2.20;;
22201;SDS011;11266;51.522;6.302;2023-07-29T03:18:39;13.35;;;3.08;;
22201;SDS011;11266;51.522;6.302;2023-07-29T03:19:26;6.50;;;1.60;;
22201;SDS011;11266;51.522;6.302;2023-07-29T03:20:11;3.75;;;1.90;;
22201;SDS011;11266;51.522;6.302;2023-07-29T03:20:57;20.85;;;2.75;;
22201;SDS011;11266;51.522;6.302;2023-07-29T03:21:42;9.93;;;2.03;;
22201;SDS011;11266;51.522;6.302;2023-07-29T03:22:28;20.75;;;3.92;;
22201;SDS011;11266;51.522;6.302;2023-07-29T03:23:13;10.18;;;1.98;;
22201;SDS011;11266;51.522;6.302;2023-07-29T03:23:59;4.53;;;2.05;;
22201;SDS011;11266;51.522;6.302;2023-07-29T03:24:45;4.75;;;1.63;;
22201;SDS011;11266;51.522;6.302;2023-07-29T03:25:30;9.55;;;2.30;;
22201;SDS011;11266;51.522;6.302;2023-07-29T03:26:16;10.73;;;2.35;;
22201;SDS011;11266;51.522;6.302;2023-07-29T03:27:02;13.25;;;2.30;;
22201;SDS011;11266;51.522;6.302;2023-07-29T03:27:47;13.25;;;2.20;;
22201;SDS011;11266;51.522;6.302;2023-07-29T03:28:34;8.98;;;2.33;;
22201;SDS011;11266;51.522;6.302;2023-07-29T03:29:20;8.75;;;2.20;;
22201;SDS011;11266;51.522;6.302;2023-07-29T03:30:06;9.55;;;2.22;;
22201;SDS011;11266;51.522;6.302;2023-07-29T03:30:52;9.73;;;2.00;;
22201;SDS011;11266;51.522;6.302;2023-07-29T03:31:38;8.52;;;2.40;;
22201;SDS011;11266;51.522;6.302;2023-07-29T03:32:23;8.23;;;2.30;;
22201;SDS011;11266;51.522;6.302;2023-07-29T03:33:09;16.75;;;3.10;;
22201;SDS011;11266;51.522;6.302;2023-07-29T03:33:55;21.20;;;3.10;;
22201;SDS011;11266;51.522;6.302;2023-07-29T03:34:40;9.30;;;2.22;;
22201;SDS011;11266;51.522;6.302;2023-07-29T03:35:26;10.93;;;2.15;;
22201;SDS011;11266;51.522;6.302;2023-07-29T03:36:11;3.70;;;1.80;;
22201;SDS011;11266;51.522;6.302;2023-07-29T03:36:57;6.72;;;1.90;;
22201;SDS011;11266;51.522;6.302;2023-07-29T03:37:42;11.90;;;2.72;;
22201;SDS011;11266;51.522;6.302;2023-07-29T03:38:28;6.72;;;1.98;;
22201;SDS011;11266;51.522;6.302;2023-07-29T03:39:14;9.00;;;2.13;;
22201;SDS011;11266;51.522;6.302;2023-07-29T03:39:59;14.68;;;2.72;;
22201;SDS011;11266;51.522;6.302;2023-07-29T03:40:45;5.63;;;2.58;;
22201;SDS011;11266;51.522;6.302;2023-07-29T03:41:31;12.13;;;1.92;;
22201;SDS011;11266;51.522;6.302;2023-07-29T03:42:16;9.95;;;2.70;;
22201;SDS011;11266;51.522;6.302;2023-07-29T03:43:02;4.28;;;1.88;;
22201;SDS011;11266;51.522;6.302;2023-07-29T03:43:47;8.82;;;2.50;;
22201;SDS011;11266;51.522;6.302;2023-07-29T03:44:33;6.22;;;1.90;;
22201;SDS011;11266;51.522;6.302;2023-07-29T03:45:20;4.10;;;1.88;;
22201;SDS011;11266;51.522;6.302;2023-07-29T03:46:06;6.90;;;2.10;;
22201;SDS011;11266;51.522;6.302;2023-07-29T03:46:51;9.07;;;1.90;;
22201;SDS011;11266;51.522;6.302;2023-07-29T03:47:37;11.15;;;2.30;;
22201;SDS011;11266;51.522;6.302;2023-07-29T03:48:22;6.82;;;2.45;;
22201;SDS011;11266;51.522;6.302;2023-07-29T03:49:08;7.97;;;1.77;;
22201;SDS011;11266;51.522;6.302;2023-07-29T03:49:54;10.90;;;2.55;;
22201;SDS011;11266;51.522;6.302;2023-07-29T03:50:39;9.55;;;2.58;;
22201;SDS011;11266;51.522;6.302;2023-07-29T03:51:25;11.77;;;2.33;;
22201;SDS011;11266;51.522;6.302;2023-07-29T03:52:10;4.63;;;1.75;;
22201;SDS011;11266;51.522;6.302;2023-07-29T03:52:56;4.70;;;2.33;;
22201;SDS011;11266;51.522;6.302;2023-07-29T03:53:42;13.48;;;2.40;;
22201;SDS011;11266;51.522;6.302;2023-07-29T03:54:27;8.75;;;2.20;;
22201;SDS011;11266;51.522;6.302;2023-07-29T03:55:13;9.98;;;2.67;;
22201;SDS011;11266;51.522;6.302;2023-07-29T03:55:58;9.93;;;2.13;;
22201;SDS011;11266;51.522;6.302;2023-07-29T03:56:44;15.88;;;1.98;;
22201;SDS011;11266;51.522;6.302;2023-07-29T03:57:29;13.90;;;2.28;;
22201;SDS011;11266;51.522;6.302;2023-07-29T03:58:15;3.90;;;1.77;;
22201;SDS011;11266;51.522;6.302;2023-07-29T03:59:07;7.50;;;1.80;;
22201;SDS011;11266;51.522;6.302;2023-07-29T03:59:52;4.35;;;1.50;;
22201;SDS011;11266;51.522;6.302;2023-07-29T04:00:38;3.50;;;1.52;;
22201;SDS011;11266;51.522;6.302;2023-07-29T04:01:23;10.73;;;2.40;;
22201;SDS011;11266;51.522;6.302;2023-07-29T04:02:09;4.20;;;1.88;;
22201;SDS011;11266;51.522;6.302;2023-07-29T04:02:54;14.07;;;3.15;;
22201;SDS011;11266;51.522;6.302;2023-07-29T04:03:40;11.10;;;2.15;;
22201;SDS011;11266;51.522;6.302;2023-07-29T04:04:25;8.68;;;1.75;;
22201;SDS011;11266;51.522;6.302;2023-07-29T04:05:11;9.27;;;2.00;;
22201;SDS011;11266;51.522;6.302;2023-07-29T04:05:57;8.95;;;2.58;;
22201;SDS011;11266;51.522;6.302;2023-07-29T04:06:42;9.23;;;2.40;;
22201;SDS011;11266;51.522;6.302;2023-07-29T04:07:28;10.45;;;2.38;;
22201;SDS011;11266;51.522;6.302;2023-07-29T04:08:13;5.22;;;1.90;;
22201;SDS011;11266;51.522;6.302;2023-07-29T04:08:59;11.90;;;2.38;;
22201;SDS011;11266;51.522;6.302;2023-07-29T04:09:45;12.10;;;2.38;;
22201;SDS011;11266;51.522;6.302;2023-07-29T04:10:30;16.45;;;2.20;;
22201;SDS011;11266;51.522;6.302;2023-07-29T04:11:16;17.73;;;2.00;;
22201;SDS011;11266;51.522;6.302;2023-07-29T04:12:02;11.10;;;1.85;;
22201;SDS011;11266;51.522;6.302;2023-07-29T04:12:48;4.72;;;1.70;;
22201;SDS011;11266;51.522;6.302;2023-07-29T04:13:33;9.77;;;2.53;;
22201;SDS011;11266;51.522;6.302;2023-07-29T04:14:19;12.48;;;2.10;;
22201;SDS011;11266;51.522;6.302;2023-07-29T04:15:05;11.25;;;2.90;;
22201;SDS011;11266;51.522;6.302;2023-07-29T04:15:51;9.27;;;3.33;;
22201;SDS011;11266;51.522;6.302;2023-07-29T04:16:37;9.80;;;1.90;;
22201;SDS011;11266;51.522;6.302;2023-07-29T04:17:22;4.13;;;1.80;;
22201;SDS011;11266;51.522;6.302;2023-07-29T04:18:08;8.85;;;1.90;;
22201;SDS011;11266;51.522;6.302;2023-07-29T04:18:53;5.07;;;1.70;;
22201;SDS011;11266;51.522;6.302;2023-07-29T04:19:39;5.57;;;1.85;;
22201;SDS011;11266;51.522;6.302;2023-07-29T04:20:25;6.40;;;2.05;;
22201;SDS011;11266;51.522;6.302;2023-07-29T04:21:10;4.90;;;1.40;;
22201;SDS011;11266;51.522;6.302;2023-07-29T04:21:56;4.47;;;1.67;;
22201;SDS011;11266;51.522;6.302;2023-07-29T04:22:41;13.88;;;2.97;;
22201;SDS011;11266;51.522;6.302;2023-07-29T04:23:27;8.80;;;2.10;;
22201;SDS011;11266;51.522;6.302;2023-07-29T04:24:13;5.28;;;1.75;;
22201;SDS011;11266;51.522;6.302;2023-07-29T04:24:58;13.23;;;2.10;;
22201;SDS011;11266;51.522;6.302;2023-07-29T04:25:44;5.93;;;1.77;;
22201;SDS011;11266;51.522;6.302;2023-07-29T04:26:29;4.35;;;1.75;;
22201;SDS011;11266;51.522;6.302;2023-07-29T04:27:15;5.38;;;1.98;;
22201;SDS011;11266;51.522;6.302;2023-07-29T04:28:00;4.65;;;1.55;;
22201;SDS011;11266;51.522;6.302;2023-07-29T04:28:48;5.57;;;1.73;;
22201;SDS011;11266;51.522;6.302;2023-07-29T04:29:33;16.55;;;2.15;;
22201;SDS011;11266;51.522;6.302;2023-07-29T04:30:20;8.80;;;1.95;;
22201;SDS011;11266;51.522;6.302;2023-07-29T04:31:06;10.38;;;1.80;;
22201;SDS011;11266;51.522;6.302;2023-07-29T04:31:51;6.13;;;2.00;;
22201;SDS011;11266;51.522;6.302;2023-07-29T04:32:37;6.35;;;1.73;;
22201;SDS011;11266;51.522;6.302;2023-07-29T04:33:23;12.15;;;1.90;;
22201;SDS011;11266;51.522;6.302;2023-07-29T04:34:08;6.43;;;1.60;;
22201;SDS011;11266;51.522;6.302;2023-07-29T04:34:54;3.45;;;1.45;;
22201;SDS011;11266;51.522;6.302;2023-07-29T04:35:39;7.03;;;1.70;;
22201;SDS011;11266;51.522;6.302;2023-07-29T04:36:25;5.93;;;1.98;;
22201;SDS011;11266;51.522;6.302;2023-07-29T04:37:10;7.15;;;1.50;;
22201;SDS011;11266;51.522;6.302;2023-07-29T04:37:56;3.65;;;1.40;;
22201;SDS011;11266;51.522;6.302;2023-07-29T04:38:42;7.65;;;1.70;;
22201;SDS011;11266;51.522;6.302;2023-07-29T04:39:27;2.40;;;1.50;;
22201;SDS011;11266;51.522;6.302;2023-07-29T04:40:13;2.92;;;1.40;;
22201;SDS011;11266;51.522;6.302;2023-07-29T04:40:58;3.63;;;1.63;;
22201;SDS011;11266;51.522;6.302;2023-07-29T04:41:47;7.30;;;1.60;;
22201;SDS011;11266;51.522;6.302;2023-07-29T04:42:32;2.95;;;1.38;;
22201;SDS011;11266;51.522;6.302;2023-07-29T04:43:18;4.05;;;1.67;;
22201;SDS011;11266;51.522;6.302;2023-07-29T04:44:04;7.65;;;1.50;;
22201;SDS011;11266;51.522;6.302;2023-07-29T04:44:49;3.22;;;1.67;;